createdAt,value
2018-11-01T00:00:22.462Z,101451.33
2018-11-01T00:02:51.799Z,101449.59
2018-11-01T00:05:21.188Z,101448.19
2018-11-01T00:07:50.563Z,101443.26
2018-11-01T00:10:19.983Z,101436.20
2018-11-01T00:12:49.871Z,101438.73
2018-11-01T00:15:19.214Z,101434.33
2018-11-01T00:17:48.580Z,101432.55
2018-11-01T00:20:17.905Z,101430.41
2018-11-01T00:22:47.275Z,101433.51
2018-11-01T00:25:16.618Z,101425.80
2018-11-01T00:27:45.998Z,101438.08
2018-11-01T00:30:15.335Z,101436.87
2018-11-01T00:32:44.677Z,101434.83
2018-11-01T00:35:13.995Z,101439.33
2018-11-01T00:37:43.337Z,101441.25
2018-11-01T00:40:15.319Z,101440.08
2018-11-01T00:42:45.153Z,101421.88
2018-11-01T00:45:14.674Z,101429.37
2018-11-01T00:47:44.054Z,101432.94
2018-11-01T00:50:14.636Z,101425.09
2018-11-01T00:52:44.549Z,101422.17
2018-11-01T00:55:14.448Z,101427.88
2018-11-01T00:57:44.094Z,101431.48
2018-11-01T01:00:15.204Z,101423.65
2018-11-01T01:02:44.555Z,101421.03
2018-11-01T01:05:13.925Z,101430.70
2018-11-01T01:08:13.906Z,101430.27
2018-11-01T01:10:44.456Z,101419.25
2018-11-01T01:13:13.807Z,101414.89
2018-11-01T01:15:43.118Z,101413.15
2018-11-01T01:18:12.419Z,101422.25
2018-11-01T01:20:41.749Z,101419.20
2018-11-01T01:23:11.168Z,101422.22
2018-11-01T01:25:40.505Z,101423.95
2018-11-01T01:28:10.735Z,101416.03
2018-11-01T01:30:40.143Z,101405.97
2018-11-01T01:33:09.525Z,101408.94
2018-11-01T01:35:38.877Z,101406.20
2018-11-01T01:38:08.217Z,101403.50
2018-11-01T01:40:37.582Z,101395.53
2018-11-01T01:43:06.930Z,101390.19
2018-11-01T01:45:36.286Z,101384.00
2018-11-01T01:48:07.034Z,101372.59
2018-11-01T01:50:36.416Z,101374.73
2018-11-01T01:53:06.025Z,101368.59
2018-11-01T01:55:35.442Z,101366.02
2018-11-01T01:58:06.070Z,101363.02
2018-11-01T02:00:35.481Z,101360.41
2018-11-01T02:08:07.114Z,101352.17
2018-11-01T02:10:36.515Z,101360.48
2018-11-01T02:13:06.903Z,101352.27
2018-11-01T02:15:36.295Z,101346.66
2018-11-01T02:18:06.445Z,101344.08
2018-11-01T02:20:35.794Z,101345.39
2018-11-01T02:23:06.655Z,101336.69
2018-11-01T02:25:35.997Z,101343.22
2018-11-01T02:28:14.912Z,101327.94
2018-11-01T02:30:44.261Z,101327.50
2018-11-01T02:33:13.570Z,101326.11
2018-11-01T02:35:42.927Z,101326.07
2018-11-01T02:38:12.409Z,101321.68
2018-11-01T02:40:41.620Z,101316.81
2018-11-01T02:43:11.035Z,101314.63
2018-11-01T02:45:40.646Z,101311.55
2018-11-01T02:48:10.216Z,101309.80
2018-11-01T02:50:39.619Z,101305.84
2018-11-01T02:53:09.074Z,101305.33
2018-11-01T02:55:38.487Z,101300.93
2018-11-01T02:58:08.128Z,101294.80
2018-11-01T03:00:37.523Z,101291.27
2018-11-01T03:03:06.942Z,101293.84
2018-11-01T03:05:36.369Z,101292.00
2018-11-01T03:08:06.381Z,101284.95
2018-11-01T03:10:35.790Z,101277.08
2018-11-01T03:13:06.488Z,101287.95
2018-11-01T03:15:36.059Z,101279.69
2018-11-01T03:18:06.996Z,101269.30
2018-11-01T03:20:36.366Z,101273.34
2018-11-01T03:23:10.639Z,101266.05
2018-11-01T03:25:40.206Z,101255.25
2018-11-01T03:28:09.629Z,101247.95
2018-11-01T03:30:39.039Z,101247.98
2018-11-01T03:33:08.563Z,101253.73
2018-11-01T03:35:38.080Z,101257.25
2018-11-01T03:38:07.624Z,101261.16
2018-11-01T03:40:37.214Z,101246.77
2018-11-01T03:43:06.775Z,101234.11
2018-11-01T03:45:36.408Z,101238.84
2018-11-01T03:48:06.784Z,101217.41
2018-11-01T03:50:37.047Z,101223.85
2018-11-01T03:53:06.620Z,101228.98
2018-11-01T03:55:36.101Z,101222.42
2018-11-01T03:58:06.762Z,101223.72
2018-11-01T04:00:36.184Z,101215.45
2018-11-01T04:03:06.427Z,101217.28
2018-11-01T04:05:36.005Z,101222.59
2018-11-01T04:08:06.653Z,101217.38
2018-11-01T04:10:36.203Z,101223.90
2018-11-01T04:13:06.676Z,101213.93
2018-11-01T04:15:36.273Z,101212.66
2018-11-01T04:18:06.334Z,101218.41
2018-11-01T04:20:35.847Z,101212.78
2018-11-01T04:23:06.411Z,101214.16
2018-11-01T04:25:37.040Z,101212.89
2018-11-01T04:28:06.582Z,101205.94
2018-11-01T04:30:36.112Z,101213.84
2018-11-01T04:33:06.663Z,101213.88
2018-11-01T04:35:36.181Z,101209.13
2018-11-01T04:38:06.790Z,101202.59
2018-11-01T04:40:36.187Z,101196.97
2018-11-01T04:43:07.034Z,101193.53
2018-11-01T04:45:36.371Z,101189.61
2018-11-01T04:48:06.218Z,101186.20
2018-11-01T04:50:35.545Z,101173.14
2018-11-01T04:53:06.334Z,101171.39
2018-11-01T04:55:35.877Z,101171.00
2018-11-01T04:58:06.486Z,101176.69
2018-11-01T05:00:35.797Z,101177.59
2018-11-01T05:03:06.568Z,101178.97
2018-11-01T05:05:35.954Z,101181.22
2018-11-01T05:08:06.188Z,101178.63
2018-11-01T05:10:35.506Z,101179.57
2018-11-01T05:13:06.071Z,101176.98
2018-11-01T05:15:35.429Z,101180.07
2018-11-01T05:18:06.171Z,101168.81
2018-11-01T05:20:35.523Z,101171.42
2018-11-01T05:23:06.201Z,101164.48
2018-11-01T05:25:35.653Z,101170.15
2018-11-01T05:28:04.983Z,101170.12
2018-11-01T05:30:34.373Z,101178.36
2018-11-01T05:33:03.755Z,101177.45
2018-11-01T05:35:33.068Z,101185.70
2018-11-01T05:38:02.426Z,101189.55
2018-11-01T05:40:31.741Z,101194.28
2018-11-01T05:43:01.126Z,101189.42
2018-11-01T05:45:30.475Z,101182.82
2018-11-01T05:47:59.800Z,101178.86
2018-11-01T05:50:29.183Z,101179.67
2018-11-01T05:52:58.539Z,101182.64
2018-11-01T05:55:28.948Z,101181.27
2018-11-01T05:57:58.334Z,101192.48
2018-11-01T06:00:27.661Z,101191.82
2018-11-01T06:02:57.035Z,101199.08
2018-11-01T06:05:26.370Z,101188.48
2018-11-01T06:07:58.466Z,101198.38
2018-11-01T06:10:28.062Z,101200.01
2018-11-01T06:12:57.403Z,101196.05
2018-11-01T06:15:26.734Z,101201.67
2018-11-01T06:17:56.932Z,101207.22
2018-11-01T06:21:10.553Z,101211.52
2018-11-01T06:23:39.947Z,101218.32
2018-11-01T06:26:09.305Z,101217.48
2018-11-01T06:28:38.675Z,101221.02
2018-11-01T06:31:08.027Z,101215.91
2018-11-01T06:33:37.506Z,101212.55
2018-11-01T06:36:08.762Z,101216.15
2018-11-01T06:38:38.134Z,101217.53
2018-11-01T06:41:07.514Z,101223.73
2018-11-01T06:43:36.846Z,101218.55
2018-11-01T06:46:06.343Z,101223.34
2018-11-01T06:48:35.661Z,101218.95
2018-11-01T06:51:06.986Z,101209.81
2018-11-01T06:53:36.329Z,101218.08
2018-11-01T06:56:06.399Z,101212.39
2018-11-01T06:58:35.834Z,101212.39
2018-11-01T07:01:06.821Z,101218.95
2018-11-01T07:03:36.155Z,101218.55
2018-11-01T07:06:06.672Z,101226.47
2018-11-01T07:08:36.987Z,101221.71
2018-11-01T07:11:06.724Z,101225.70
2018-11-01T07:13:36.261Z,101226.18
2018-11-01T07:16:06.699Z,101214.03
2018-11-01T07:18:36.047Z,101211.92
2018-11-01T07:21:06.491Z,101212.03
2018-11-01T07:23:41.696Z,101221.28
2018-11-01T07:26:11.237Z,101217.43
2018-11-01T07:28:40.443Z,101218.00
2018-11-01T07:31:09.819Z,101223.33
2018-11-01T07:33:39.166Z,101214.21
2018-11-01T07:36:08.502Z,101214.68
2018-11-01T07:38:38.484Z,101219.50
2018-11-01T07:41:07.879Z,101212.10
2018-11-01T07:43:37.243Z,101220.84
2018-11-01T07:46:06.924Z,101216.92
2018-11-01T07:48:36.375Z,101220.88
2018-11-01T07:51:06.270Z,101210.42
2018-11-01T07:53:36.634Z,101208.27
2018-11-01T07:56:06.880Z,101215.78
2018-11-01T08:01:11.108Z,101219.45
2018-11-01T08:03:40.516Z,101207.33
2018-11-01T08:06:09.913Z,101202.19
2018-11-01T08:08:39.218Z,101210.95
2018-11-01T08:11:08.566Z,101207.52
2018-11-01T08:13:37.947Z,101208.89
2018-11-01T08:16:08.936Z,101223.77
2018-11-01T08:18:38.470Z,101223.39
2018-11-01T08:21:08.119Z,101211.64
2018-11-01T08:23:37.360Z,101206.89
2018-11-01T08:26:06.785Z,101212.15
2018-11-01T08:28:36.173Z,101200.86
2018-11-01T08:31:06.510Z,101196.96
2018-11-01T08:33:35.953Z,101190.44
2018-11-01T08:36:06.023Z,101193.98
2018-11-01T08:38:36.035Z,101183.53
2018-11-01T08:41:06.363Z,101173.95
2018-11-01T08:43:35.868Z,101169.61
2018-11-01T08:46:06.873Z,101168.32
2018-11-01T08:48:36.335Z,101166.19
2018-11-01T08:51:05.967Z,101172.37
2018-11-01T08:53:38.371Z,101175.05
2018-11-01T08:56:07.939Z,101172.05
2018-11-01T08:58:38.744Z,101171.23
2018-11-01T09:01:08.144Z,101170.39
2018-11-01T09:03:37.531Z,101172.22
2018-11-01T09:06:06.966Z,101176.22
2018-11-01T09:08:36.375Z,101178.04
2018-11-01T09:11:06.343Z,101171.11
2018-11-01T09:13:35.754Z,101178.57
2018-11-01T09:16:07.311Z,101173.42
2018-11-01T09:18:36.782Z,101168.23
2018-11-01T09:21:06.641Z,101159.57
2018-11-01T09:23:36.091Z,101164.01
2018-11-01T09:26:06.106Z,101163.62
2018-11-01T09:28:35.475Z,101157.56
2018-11-01T09:31:06.122Z,101156.72
2018-11-01T09:33:35.519Z,101150.63
2018-11-01T09:36:06.040Z,101157.23
2018-11-01T09:38:35.486Z,101161.19
2018-11-01T09:41:05.498Z,101159.89
2018-11-01T09:43:34.915Z,101160.78
2018-11-01T09:46:04.459Z,101150.70
2018-11-01T09:48:33.827Z,101155.95
2018-11-01T09:51:03.266Z,101151.56
2018-11-01T09:53:32.682Z,101149.39
2018-11-01T09:56:02.144Z,101145.87
2018-11-01T09:58:31.646Z,101152.02
2018-11-01T10:01:01.106Z,101144.12
2018-11-01T10:03:30.555Z,101145.87
2018-11-01T10:05:59.962Z,101148.50
2018-11-01T10:08:30.429Z,101152.44
2018-11-01T10:10:59.929Z,101141.91
2018-11-01T10:13:29.411Z,101143.22
2018-11-01T10:15:59.031Z,101145.41
2018-11-01T10:18:28.615Z,101146.27
2018-11-01T10:20:57.710Z,101148.02
2018-11-01T10:23:27.086Z,101134.84
2018-11-01T10:25:56.504Z,101136.13
2018-11-01T10:28:25.935Z,101132.63
2018-11-01T10:30:55.311Z,101133.48
2018-11-01T10:33:24.688Z,101119.41
2018-11-01T10:35:54.109Z,101122.02
2018-11-01T10:38:24.647Z,101119.34
2018-11-01T10:40:54.760Z,101114.05
2018-11-01T10:43:24.104Z,101107.00
2018-11-01T10:45:53.447Z,101101.25
2018-11-01T10:48:23.742Z,101114.81
2018-11-01T10:50:53.139Z,101111.25
2018-11-01T10:53:22.565Z,101116.91
2018-11-01T10:55:51.971Z,101115.52
2018-11-01T10:58:21.311Z,101119.40
2018-11-01T11:00:56.035Z,101122.41
2018-11-01T11:03:25.315Z,101117.97
2018-11-01T11:05:55.373Z,101102.08
2018-11-01T11:08:24.783Z,101105.53
2018-11-01T11:10:54.192Z,101097.11
2018-11-01T11:13:23.511Z,101092.61
2018-11-01T11:15:53.047Z,101094.29
2018-11-01T11:18:22.375Z,101087.23
2018-11-01T11:20:52.008Z,101094.64
2018-11-01T11:23:21.084Z,101088.04
2018-11-01T11:25:50.445Z,101091.50
2018-11-01T11:28:19.775Z,101085.75
2018-11-01T11:30:49.242Z,101086.09
2018-11-01T11:33:18.596Z,101087.37
2018-11-01T11:35:48.823Z,101085.13
2018-11-01T11:38:18.191Z,101089.50
2018-11-01T11:40:47.541Z,101081.58
2018-11-01T11:43:16.921Z,101084.20
2018-11-01T11:45:46.238Z,101081.53
2018-11-01T11:48:15.587Z,101075.78
2018-11-01T11:50:44.975Z,101080.19
2018-11-01T11:53:14.397Z,101071.82
2018-11-01T11:55:43.825Z,101069.18
2018-11-01T11:58:13.221Z,101064.78
2018-11-01T12:00:42.622Z,101064.41
2018-11-01T12:03:12.902Z,101062.75
2018-11-01T12:05:42.305Z,101058.80
2018-11-01T12:08:11.615Z,101054.45
2018-11-01T12:10:40.956Z,101054.51
2018-11-01T12:13:10.274Z,101052.83
2018-11-01T12:15:39.672Z,101057.77
2018-11-01T12:18:09.016Z,101047.37
2018-11-01T12:20:38.452Z,101041.80
2018-11-01T12:23:07.409Z,101035.77
2018-11-01T12:25:36.775Z,101031.03
2018-11-01T12:28:13.115Z,101032.81
2018-11-01T12:30:42.461Z,101042.12
2018-11-01T12:33:11.814Z,101045.22
2018-11-01T12:35:41.235Z,101043.52
2018-11-01T12:38:10.545Z,101041.41
2018-11-01T12:40:39.885Z,101044.95
2018-11-01T12:43:09.231Z,101044.13
2018-11-01T12:45:38.579Z,101035.84
2018-11-01T12:48:07.943Z,101037.64
2018-11-01T12:50:37.297Z,101030.61
2018-11-01T12:53:06.632Z,101023.58
2018-11-01T12:55:35.966Z,101016.13
2018-11-01T12:58:06.287Z,101020.05
2018-11-01T13:00:35.735Z,101014.78
2018-11-01T13:03:06.274Z,101001.61
2018-11-01T13:05:35.615Z,100994.61
2018-11-01T13:08:06.503Z,100975.73
2018-11-01T13:10:35.863Z,100986.23
2018-11-01T13:13:06.398Z,101000.26
2018-11-01T13:15:35.756Z,100985.39
2018-11-01T13:18:06.469Z,100968.73
2018-11-01T13:20:35.737Z,100953.34
2018-11-01T13:23:06.295Z,100951.13
2018-11-01T13:25:35.653Z,100968.66
2018-11-01T13:28:06.291Z,100971.75
2018-11-01T13:30:35.606Z,100975.31
2018-11-01T13:33:06.223Z,100980.62
2018-11-01T13:35:35.743Z,100978.44
2018-11-01T13:38:06.400Z,100956.09
2018-11-01T13:40:36.130Z,100948.62
2018-11-01T13:43:06.364Z,100947.30
2018-11-01T13:45:35.751Z,100961.36
2018-11-01T13:48:06.633Z,100980.66
2018-11-01T13:50:35.775Z,100983.33
2018-11-01T13:53:06.514Z,100971.97
2018-11-01T13:55:35.906Z,100977.68
2018-11-01T13:58:06.391Z,100979.48
2018-11-01T14:00:35.722Z,100992.67
2018-11-01T14:03:06.569Z,100990.06
2018-11-01T14:05:35.916Z,100980.02
2018-11-01T14:08:06.235Z,100976.04
2018-11-01T14:10:35.544Z,100982.23
2018-11-01T14:13:06.249Z,100992.73
2018-11-01T14:15:35.600Z,100989.67
2018-11-01T14:18:06.455Z,100998.91
2018-11-01T14:20:35.815Z,101005.48
2018-11-01T14:23:06.662Z,101003.32
2018-11-01T14:25:36.115Z,100993.27
2018-11-01T14:28:06.253Z,100985.83
2018-11-01T14:30:35.584Z,100980.59
2018-11-01T14:33:05.030Z,100980.14
2018-11-01T14:35:34.350Z,100977.95
2018-11-01T14:38:03.849Z,100978.85
2018-11-01T14:40:33.014Z,100983.66
2018-11-01T14:43:02.390Z,100981.48
2018-11-01T14:45:31.722Z,100977.11
2018-11-01T14:48:01.106Z,100994.65
2018-11-01T14:50:30.430Z,100995.09
2018-11-01T14:53:00.748Z,101001.66
2018-11-01T14:55:30.367Z,101006.05
2018-11-01T14:58:00.091Z,100997.73
2018-11-01T15:00:27.912Z,100985.94
2018-11-01T15:02:57.337Z,100981.12
2018-11-01T15:05:26.664Z,100980.69
2018-11-01T15:07:56.043Z,100978.08
2018-11-01T15:10:25.327Z,100989.46
2018-11-01T15:12:54.759Z,100991.25
2018-11-01T15:15:24.005Z,100991.27
2018-11-01T15:17:53.365Z,100992.13
2018-11-01T15:20:22.731Z,100982.07
2018-11-01T15:22:52.144Z,100992.16
2018-11-01T15:25:21.488Z,100992.15
2018-11-01T15:27:50.844Z,100988.67
2018-11-01T15:30:20.226Z,100990.88
2018-11-01T15:32:49.611Z,100989.98
2018-11-01T15:35:18.970Z,100989.59
2018-11-01T15:37:48.299Z,100999.66
2018-11-01T15:40:17.637Z,100999.22
2018-11-01T15:42:46.985Z,101000.97
2018-11-01T15:45:16.356Z,101004.47
2018-11-01T15:47:45.685Z,101005.35
2018-11-01T15:50:15.395Z,101005.37
2018-11-01T15:52:45.005Z,101017.61
2018-11-01T15:55:14.385Z,101025.48
2018-11-01T15:57:43.784Z,101033.36
2018-11-01T16:00:14.254Z,101034.69
2018-11-01T16:02:44.677Z,101043.02
2018-11-01T16:05:14.747Z,101036.87
2018-11-01T16:07:44.339Z,101042.52
2018-11-01T16:10:14.052Z,101037.70
2018-11-01T16:12:43.251Z,101037.69
2018-11-01T16:15:13.847Z,101048.20
2018-11-01T16:17:43.217Z,101048.62
2018-11-01T16:21:15.770Z,101052.11
2018-11-01T16:23:45.170Z,101045.97
2018-11-01T16:26:14.572Z,101055.59
2018-11-01T16:28:45.349Z,101049.45
2018-11-01T16:31:15.962Z,101049.03
2018-11-01T16:33:45.324Z,101051.64
2018-11-01T16:36:14.989Z,101052.92
2018-11-01T16:38:44.351Z,101055.09
2018-11-01T16:41:14.232Z,101057.28
2018-11-01T16:43:43.583Z,101054.20
2018-11-01T16:46:13.022Z,101059.45
2018-11-01T16:48:42.563Z,101061.63
2018-11-01T16:51:12.114Z,101055.94
2018-11-01T16:53:41.503Z,101065.53
2018-11-01T16:56:10.831Z,101049.35
2018-11-01T16:58:41.450Z,101057.20
2018-11-01T17:01:10.797Z,101057.63
2018-11-01T17:03:40.224Z,101062.89
2018-11-01T17:06:09.859Z,101059.82
2018-11-01T17:08:39.597Z,101062.02
2018-11-01T17:11:09.050Z,101068.55
2018-11-01T17:13:38.553Z,101061.58
2018-11-01T17:16:08.404Z,101067.67
2018-11-01T17:18:37.967Z,101075.13
2018-11-01T17:21:07.589Z,101068.09
2018-11-01T17:23:37.186Z,101072.93
2018-11-01T17:26:06.728Z,101066.38
2018-11-01T17:28:36.198Z,101072.47
2018-11-01T17:31:06.494Z,101069.41
2018-11-01T17:33:36.019Z,101078.59
2018-11-01T17:36:06.517Z,101072.91
2018-11-01T17:38:36.046Z,101076.42
2018-11-01T17:41:06.657Z,101072.48
2018-11-01T17:43:36.216Z,101076.42
2018-11-01T17:46:06.315Z,101073.80
2018-11-01T17:48:35.799Z,101082.55
2018-11-01T17:53:35.674Z,101076.00
2018-11-01T17:56:07.329Z,101078.16
2018-11-01T17:58:36.791Z,101076.42
2018-11-01T18:01:06.721Z,101070.72
2018-11-01T18:03:36.116Z,101072.91
2018-11-01T18:06:06.552Z,101068.09
2018-11-01T18:08:36.148Z,101070.27
2018-11-01T18:11:06.284Z,101068.55
2018-11-01T18:13:35.679Z,101069.41
2018-11-01T18:16:06.145Z,101061.11
2018-11-01T18:18:35.538Z,101061.11
2018-11-01T18:21:06.221Z,101058.49
2018-11-01T18:23:35.695Z,101062.84
2018-11-01T18:26:06.339Z,101059.80
2018-11-01T18:28:35.707Z,101054.98
2018-11-01T18:31:06.464Z,101055.41
2018-11-01T18:33:35.836Z,101055.85
2018-11-01T18:36:06.489Z,101056.28
2018-11-01T18:38:35.871Z,101055.41
2018-11-01T18:41:06.419Z,101042.73
2018-11-01T18:44:06.593Z,101041.41
2018-11-01T18:46:36.258Z,101043.17
2018-11-01T18:49:06.358Z,101042.72
2018-11-01T18:51:35.756Z,101047.08
2018-11-01T18:54:06.763Z,101038.80
2018-11-01T18:56:36.019Z,101040.10
2018-11-01T18:59:06.225Z,101034.86
2018-11-01T19:01:35.618Z,101030.06
2018-11-01T19:04:06.415Z,101031.78
2018-11-01T19:06:35.836Z,101026.11
2018-11-01T19:09:09.390Z,101030.92
2018-11-01T19:11:38.790Z,101030.89
2018-11-01T19:14:12.387Z,101031.34
2018-11-01T19:16:41.819Z,101034.40
2018-11-01T19:19:11.205Z,101031.76
2018-11-01T19:21:40.557Z,101034.80
2018-11-01T19:24:09.857Z,101042.22
2018-11-01T19:26:42.063Z,101050.97
2018-11-01T19:29:12.482Z,101051.39
2018-11-01T19:31:41.858Z,101053.16
2018-11-01T19:34:11.337Z,101050.97
2018-11-01T19:36:40.635Z,101056.22
2018-11-01T19:39:13.195Z,101055.34
2018-11-01T19:41:42.723Z,101051.86
2018-11-01T19:44:12.080Z,101057.54
2018-11-01T19:46:41.487Z,101055.79
2018-11-01T19:49:10.853Z,101043.11
2018-11-01T19:51:40.258Z,101053.59
2018-11-01T19:54:09.637Z,101053.59
2018-11-01T19:56:38.990Z,101041.38
2018-11-01T19:59:11.085Z,101039.18
2018-11-01T20:01:40.512Z,101041.36
2018-11-01T20:04:09.925Z,101037.42
2018-11-01T20:06:39.243Z,101045.73
2018-11-01T20:09:09.536Z,101049.23
2018-11-01T20:11:39.407Z,101047.47
2018-11-01T20:14:09.567Z,101048.34
2018-11-01T20:16:39.174Z,101047.04
2018-11-01T20:19:08.862Z,101045.73
2018-11-01T20:21:38.482Z,101050.98
2018-11-01T20:24:07.982Z,101047.05
2018-11-01T20:26:37.577Z,101042.69
2018-11-01T20:29:08.261Z,101048.38
2018-11-01T20:31:37.850Z,101049.70
2018-11-01T20:34:07.550Z,101052.75
2018-11-01T20:36:37.147Z,101051.02
2018-11-01T20:39:10.902Z,101055.39
2018-11-01T20:41:40.909Z,101052.78
2018-11-01T20:44:11.093Z,101050.61
2018-11-01T20:46:40.735Z,101054.12
2018-11-01T20:49:10.302Z,101055.87
2018-11-01T20:51:39.919Z,101053.23
2018-11-01T20:54:09.527Z,101067.23
2018-11-01T20:56:39.117Z,101064.62
2018-11-01T20:59:08.631Z,101064.63
2018-11-01T21:01:38.314Z,101065.94
2018-11-01T21:04:12.705Z,101063.73
2018-11-01T21:06:42.267Z,101064.63
2018-11-01T21:09:12.497Z,101064.63
2018-11-01T21:11:42.189Z,101066.36
2018-11-01T21:14:11.604Z,101065.06
2018-11-01T21:16:41.375Z,101055.02
2018-11-01T21:19:11.722Z,101056.76
2018-11-01T21:21:41.352Z,101051.53
2018-11-01T21:24:11.295Z,101044.07
2018-11-01T21:26:40.803Z,101040.97
2018-11-01T21:29:10.281Z,101036.16
2018-11-01T21:31:39.671Z,101030.89
2018-11-01T21:34:09.277Z,101040.49
2018-11-01T21:36:38.778Z,101037.88
2018-11-01T21:39:08.794Z,101040.06
2018-11-01T21:41:38.201Z,101037.88
2018-11-01T21:44:07.814Z,101027.84
2018-11-01T21:46:37.380Z,101038.75
2018-11-01T21:49:07.106Z,101032.64
2018-11-01T21:51:36.751Z,101029.16
2018-11-01T21:54:06.820Z,101029.14
2018-11-01T21:56:36.287Z,101035.67
2018-11-01T21:59:06.179Z,101045.30
2018-11-01T22:01:35.816Z,101040.97
2018-11-01T22:04:06.550Z,101048.39
2018-11-01T22:06:36.188Z,101039.20
2018-11-01T22:09:08.427Z,101039.20
2018-11-01T22:11:38.092Z,101033.52
2018-11-01T22:14:08.002Z,101039.18
2018-11-01T22:16:37.523Z,101043.57
2018-11-01T22:19:07.127Z,101041.38
2018-11-01T22:21:38.254Z,101044.44
2018-11-01T22:24:07.983Z,101037.44
2018-11-01T22:26:37.629Z,101040.14
2018-11-01T22:29:07.183Z,101043.61
2018-11-01T22:31:36.683Z,101041.86
2018-11-01T22:34:06.600Z,101044.02
2018-11-01T22:36:36.191Z,101051.45
2018-11-01T22:39:08.560Z,101058.45
2018-11-01T22:41:38.234Z,101053.23
2018-11-01T22:44:07.743Z,101054.55
2018-11-01T22:46:37.238Z,101048.43
2018-11-01T22:49:06.814Z,101052.36
2018-11-01T22:51:36.305Z,101045.81
2018-11-01T22:54:06.489Z,101046.69
2018-11-01T22:56:35.850Z,101044.92
2018-11-01T22:59:06.430Z,101052.78
2018-11-01T23:01:35.789Z,101048.84
2018-11-01T23:04:06.758Z,101047.52
2018-11-01T23:06:36.080Z,101046.66
2018-11-01T23:09:08.382Z,101037.48
2018-11-01T23:11:38.076Z,101036.13
2018-11-01T23:14:07.507Z,101037.40
2018-11-01T23:16:37.113Z,101033.00
2018-11-01T23:19:06.591Z,101029.45
2018-11-01T23:21:35.918Z,101033.80
2018-11-01T23:24:06.539Z,101028.54
2018-11-01T23:26:35.885Z,101034.20
2018-11-01T23:29:06.519Z,101038.57
2018-11-01T23:31:35.879Z,101038.59
2018-11-01T23:34:05.947Z,101043.86
2018-11-01T23:36:40.493Z,101050.03
2018-11-01T23:39:15.536Z,101041.76
2018-11-01T23:41:50.065Z,101055.33
2018-11-01T23:44:24.745Z,101051.41
2018-11-01T23:46:59.097Z,101054.48
2018-11-01T23:49:29.223Z,101051.89
2018-11-01T23:52:01.596Z,101042.72
2018-11-01T23:54:30.995Z,101045.34
2018-11-01T23:57:00.356Z,101053.23
2018-11-01T23:59:29.730Z,101052.36
